sensor_id;sensor_type;location;lat;lon;timestamp;P1;durP1;ratioP1;P2;durP2;ratioP2
19213;SDS011;9741;51.020;5.304;2022-08-19T00:00:54;3.10;;;2.10;;
19213;SDS011;9741;51.020;5.304;2022-08-19T00:03:34;1.83;;;1.52;;
19213;SDS011;9741;51.020;5.304;2022-08-19T00:06:02;1.85;;;1.67;;
19213;SDS011;9741;51.020;5.304;2022-08-19T00:08:31;3.40;;;2.53;;
19213;SDS011;9741;51.020;5.304;2022-08-19T00:11:00;1.38;;;1.27;;
19213;SDS011;9741;51.020;5.304;2022-08-19T00:13:27;2.10;;;1.90;;
19213;SDS011;9741;51.020;5.304;2022-08-19T00:16:04;3.00;;;2.40;;
19213;SDS011;9741;51.020;5.304;2022-08-19T00:18:38;2.08;;;1.63;;
19213;SDS011;9741;51.020;5.304;2022-08-19T00:21:06;2.45;;;2.22;;
19213;SDS011;9741;51.020;5.304;2022-08-19T00:23:36;3.00;;;2.63;;
19213;SDS011;9741;51.020;5.304;2022-08-19T00:26:09;3.47;;;2.25;;
19213;SDS011;9741;51.020;5.304;2022-08-19T00:28:40;2.42;;;2.03;;
19213;SDS011;9741;51.020;5.304;2022-08-19T00:31:10;2.90;;;2.28;;
19213;SDS011;9741;51.020;5.304;2022-08-19T00:33:54;2.40;;;2.20;;
19213;SDS011;9741;51.020;5.304;2022-08-19T00:36:26;2.05;;;1.85;;
19213;SDS011;9741;51.020;5.304;2022-08-19T00:38:58;2.13;;;1.92;;
19213;SDS011;9741;51.020;5.304;2022-08-19T00:41:28;2.38;;;1.70;;
19213;SDS011;9741;51.020;5.304;2022-08-19T00:43:57;2.25;;;1.92;;
19213;SDS011;9741;51.020;5.304;2022-08-19T00:46:31;1.98;;;1.58;;
19213;SDS011;9741;51.020;5.304;2022-08-19T00:49:05;3.05;;;2.50;;
19213;SDS011;9741;51.020;5.304;2022-08-19T00:51:42;1.30;;;1.20;;
19213;SDS011;9741;51.020;5.304;2022-08-19T00:54:26;2.10;;;1.38;;
19213;SDS011;9741;51.020;5.304;2022-08-19T00:57:04;3.00;;;2.03;;
19213;SDS011;9741;51.020;5.304;2022-08-19T00:59:36;2.05;;;1.75;;
19213;SDS011;9741;51.020;5.304;2022-08-19T01:02:13;1.88;;;1.75;;
19213;SDS011;9741;51.020;5.304;2022-08-19T01:04:46;3.25;;;1.63;;
19213;SDS011;9741;51.020;5.304;2022-08-19T01:07:13;1.30;;;1.13;;
19213;SDS011;9741;51.020;5.304;2022-08-19T01:09:45;2.17;;;1.17;;
19213;SDS011;9741;51.020;5.304;2022-08-19T01:12:14;1.38;;;1.27;;
19213;SDS011;9741;51.020;5.304;2022-08-19T01:14:43;2.03;;;1.77;;
19213;SDS011;9741;51.020;5.304;2022-08-19T01:17:13;1.67;;;1.45;;
19213;SDS011;9741;51.020;5.304;2022-08-19T01:19:49;1.73;;;1.50;;
19213;SDS011;9741;51.020;5.304;2022-08-19T01:22:19;1.77;;;1.67;;
19213;SDS011;9741;51.020;5.304;2022-08-19T01:25:04;3.03;;;2.10;;
19213;SDS011;9741;51.020;5.304;2022-08-19T01:27:37;2.15;;;1.83;;
19213;SDS011;9741;51.020;5.304;2022-08-19T01:30:07;2.97;;;2.50;;
19213;SDS011;9741;51.020;5.304;2022-08-19T01:32:35;4.88;;;2.85;;
19213;SDS011;9741;51.020;5.304;2022-08-19T01:35:06;5.40;;;4.35;;
19213;SDS011;9741;51.020;5.304;2022-08-19T01:37:48;5.30;;;2.80;;
19213;SDS011;9741;51.020;5.304;2022-08-19T01:40:28;4.40;;;3.03;;
19213;SDS011;9741;51.020;5.304;2022-08-19T01:43:01;6.70;;;3.95;;
19213;SDS011;9741;51.020;5.304;2022-08-19T01:45:38;4.25;;;3.55;;
19213;SDS011;9741;51.020;5.304;2022-08-19T01:48:17;4.35;;;2.85;;
19213;SDS011;9741;51.020;5.304;2022-08-19T01:50:55;7.65;;;4.50;;
19213;SDS011;9741;51.020;5.304;2022-08-19T01:53:29;5.03;;;3.42;;
19213;SDS011;9741;51.020;5.304;2022-08-19T01:55:57;4.07;;;2.92;;
19213;SDS011;9741;51.020;5.304;2022-08-19T01:58:29;5.00;;;2.95;;
19213;SDS011;9741;51.020;5.304;2022-08-19T02:01:03;7.68;;;3.83;;
19213;SDS011;9741;51.020;5.304;2022-08-19T02:03:32;1.98;;;1.88;;
19213;SDS011;9741;51.020;5.304;2022-08-19T02:06:00;6.40;;;3.90;;
19213;SDS011;9741;51.020;5.304;2022-08-19T02:08:36;4.50;;;3.50;;
19213;SDS011;9741;51.020;5.304;2022-08-19T02:11:18;2.25;;;2.05;;
19213;SDS011;9741;51.020;5.304;2022-08-19T02:13:52;5.03;;;1.95;;
19213;SDS011;9741;51.020;5.304;2022-08-19T02:16:23;3.20;;;2.35;;
19213;SDS011;9741;51.020;5.304;2022-08-19T02:18:58;3.10;;;2.05;;
19213;SDS011;9741;51.020;5.304;2022-08-19T02:21:28;4.03;;;2.50;;
19213;SDS011;9741;51.020;5.304;2022-08-19T02:24:00;4.32;;;2.95;;
19213;SDS011;9741;51.020;5.304;2022-08-19T02:26:29;3.75;;;2.13;;
19213;SDS011;9741;51.020;5.304;2022-08-19T02:29:00;3.15;;;2.53;;
19213;SDS011;9741;51.020;5.304;2022-08-19T02:31:29;2.92;;;2.03;;
19213;SDS011;9741;51.020;5.304;2022-08-19T02:33:59;5.60;;;3.90;;
19213;SDS011;9741;51.020;5.304;2022-08-19T02:36:29;4.07;;;3.38;;
19213;SDS011;9741;51.020;5.304;2022-08-19T02:39:07;3.85;;;2.85;;
19213;SDS011;9741;51.020;5.304;2022-08-19T02:41:33;3.92;;;2.92;;
19213;SDS011;9741;51.020;5.304;2022-08-19T02:44:04;3.90;;;2.53;;
19213;SDS011;9741;51.020;5.304;2022-08-19T02:46:36;6.05;;;3.05;;
19213;SDS011;9741;51.020;5.304;2022-08-19T02:49:12;4.97;;;3.60;;
19213;SDS011;9741;51.020;5.304;2022-08-19T02:51:45;2.85;;;2.35;;
19213;SDS011;9741;51.020;5.304;2022-08-19T02:54:22;11.50;;;4.80;;
19213;SDS011;9741;51.020;5.304;2022-08-19T02:56:54;6.07;;;2.97;;
19213;SDS011;9741;51.020;5.304;2022-08-19T02:59:25;4.30;;;2.72;;
19213;SDS011;9741;51.020;5.304;2022-08-19T03:01:59;3.72;;;2.67;;
19213;SDS011;9741;51.020;5.304;2022-08-19T03:04:27;5.47;;;4.20;;
19213;SDS011;9741;51.020;5.304;2022-08-19T03:06:57;6.05;;;3.65;;
19213;SDS011;9741;51.020;5.304;2022-08-19T03:09:28;7.13;;;4.28;;
19213;SDS011;9741;51.020;5.304;2022-08-19T03:11:59;7.93;;;4.28;;
19213;SDS011;9741;51.020;5.304;2022-08-19T03:14:34;8.90;;;6.10;;
19213;SDS011;9741;51.020;5.304;2022-08-19T03:17:04;6.35;;;5.03;;
19213;SDS011;9741;51.020;5.304;2022-08-19T03:19:33;4.32;;;3.28;;
19213;SDS011;9741;51.020;5.304;2022-08-19T03:22:04;8.30;;;4.32;;
19213;SDS011;9741;51.020;5.304;2022-08-19T03:24:37;8.75;;;3.88;;
19213;SDS011;9741;51.020;5.304;2022-08-19T03:27:10;6.97;;;3.85;;
19213;SDS011;9741;51.020;5.304;2022-08-19T03:29:47;8.40;;;4.32;;
19213;SDS011;9741;51.020;5.304;2022-08-19T03:32:30;5.70;;;4.07;;
19213;SDS011;9741;51.020;5.304;2022-08-19T03:34:59;7.47;;;4.72;;
19213;SDS011;9741;51.020;5.304;2022-08-19T03:37:35;5.10;;;3.35;;
19213;SDS011;9741;51.020;5.304;2022-08-19T03:40:12;4.40;;;3.78;;
19213;SDS011;9741;51.020;5.304;2022-08-19T03:42:44;3.42;;;2.83;;
19213;SDS011;9741;51.020;5.304;2022-08-19T03:45:20;9.32;;;3.80;;
19213;SDS011;9741;51.020;5.304;2022-08-19T03:47:51;2.60;;;2.40;;
19213;SDS011;9741;51.020;5.304;2022-08-19T03:50:21;5.40;;;3.25;;
19213;SDS011;9741;51.020;5.304;2022-08-19T03:52:57;7.32;;;4.93;;
19213;SDS011;9741;51.020;5.304;2022-08-19T03:55:31;3.80;;;2.70;;
19213;SDS011;9741;51.020;5.304;2022-08-19T03:58:01;3.80;;;2.50;;
19213;SDS011;9741;51.020;5.304;2022-08-19T04:00:32;6.88;;;4.13;;
19213;SDS011;9741;51.020;5.304;2022-08-19T04:03:09;5.88;;;3.92;;
19213;SDS011;9741;51.020;5.304;2022-08-19T04:05:40;7.00;;;3.38;;
19213;SDS011;9741;51.020;5.304;2022-08-19T04:08:10;5.15;;;4.03;;
19213;SDS011;9741;51.020;5.304;2022-08-19T04:10:50;6.05;;;3.50;;
19213;SDS011;9741;51.020;5.304;2022-08-19T04:13:19;4.20;;;3.58;;
19213;SDS011;9741;51.020;5.304;2022-08-19T04:15:51;4.82;;;3.17;;
19213;SDS011;9741;51.020;5.304;2022-08-19T04:18:22;3.25;;;2.67;;
19213;SDS011;9741;51.020;5.304;2022-08-19T04:20:55;4.20;;;2.55;;
19213;SDS011;9741;51.020;5.304;2022-08-19T04:23:31;3.20;;;2.70;;
19213;SDS011;9741;51.020;5.304;2022-08-19T04:26:05;3.25;;;1.88;;
19213;SDS011;9741;51.020;5.304;2022-08-19T04:28:35;5.60;;;2.60;;
19213;SDS011;9741;51.020;5.304;2022-08-19T04:31:03;5.30;;;3.92;;
19213;SDS011;9741;51.020;5.304;2022-08-19T04:33:40;3.88;;;2.53;;
19213;SDS011;9741;51.020;5.304;2022-08-19T04:36:18;7.15;;;4.45;;
19213;SDS011;9741;51.020;5.304;2022-08-19T04:38:47;3.47;;;2.65;;
19213;SDS011;9741;51.020;5.304;2022-08-19T04:41:33;2.80;;;2.10;;
19213;SDS011;9741;51.020;5.304;2022-08-19T04:44:19;4.72;;;2.78;;
19213;SDS011;9741;51.020;5.304;2022-08-19T04:46:49;2.38;;;1.95;;
19213;SDS011;9741;51.020;5.304;2022-08-19T04:49:26;6.55;;;2.28;;
19213;SDS011;9741;51.020;5.304;2022-08-19T04:52:01;2.53;;;1.90;;
19213;SDS011;9741;51.020;5.304;2022-08-19T04:54:32;4.43;;;2.95;;
19213;SDS011;9741;51.020;5.304;2022-08-19T04:57:15;2.78;;;2.45;;
19213;SDS011;9741;51.020;5.304;2022-08-19T04:59:45;1.87;;;1.30;;
19213;SDS011;9741;51.020;5.304;2022-08-19T05:02:15;2.42;;;2.03;;
19213;SDS011;9741;51.020;5.304;2022-08-19T05:04:45;5.53;;;2.33;;
19213;SDS011;9741;51.020;5.304;2022-08-19T05:07:16;4.30;;;1.38;;
19213;SDS011;9741;51.020;5.304;2022-08-19T05:09:44;2.63;;;2.13;;
19213;SDS011;9741;51.020;5.304;2022-08-19T05:12:29;3.80;;;2.60;;
19213;SDS011;9741;51.020;5.304;2022-08-19T05:14:56;2.53;;;2.20;;
19213;SDS011;9741;51.020;5.304;2022-08-19T05:17:24;1.83;;;1.63;;
19213;SDS011;9741;51.020;5.304;2022-08-19T05:19:56;4.55;;;3.40;;
19213;SDS011;9741;51.020;5.304;2022-08-19T05:22:44;3.65;;;2.88;;
19213;SDS011;9741;51.020;5.304;2022-08-19T05:25:17;10.05;;;4.55;;
19213;SDS011;9741;51.020;5.304;2022-08-19T05:27:51;8.88;;;5.35;;
19213;SDS011;9741;51.020;5.304;2022-08-19T05:30:22;4.25;;;3.30;;
19213;SDS011;9741;51.020;5.304;2022-08-19T05:32:52;9.10;;;3.92;;
19213;SDS011;9741;51.020;5.304;2022-08-19T05:35:21;6.53;;;4.43;;
19213;SDS011;9741;51.020;5.304;2022-08-19T05:37:49;13.20;;;7.20;;
19213;SDS011;9741;51.020;5.304;2022-08-19T05:40:20;12.65;;;6.30;;
19213;SDS011;9741;51.020;5.304;2022-08-19T05:42:54;7.53;;;4.15;;
19213;SDS011;9741;51.020;5.304;2022-08-19T05:45:29;7.15;;;4.68;;
19213;SDS011;9741;51.020;5.304;2022-08-19T05:47:57;8.07;;;4.95;;
19213;SDS011;9741;51.020;5.304;2022-08-19T05:50:29;6.93;;;3.45;;
19213;SDS011;9741;51.020;5.304;2022-08-19T05:53:07;11.43;;;5.57;;
19213;SDS011;9741;51.020;5.304;2022-08-19T05:55:35;7.38;;;5.05;;
19213;SDS011;9741;51.020;5.304;2022-08-19T05:58:18;12.75;;;5.85;;
19213;SDS011;9741;51.020;5.304;2022-08-19T06:00:50;8.07;;;5.00;;
19213;SDS011;9741;51.020;5.304;2022-08-19T06:03:21;8.40;;;4.97;;
19213;SDS011;9741;51.020;5.304;2022-08-19T06:05:52;12.35;;;5.72;;
19213;SDS011;9741;51.020;5.304;2022-08-19T06:08:24;8.32;;;5.50;;
19213;SDS011;9741;51.020;5.304;2022-08-19T06:10:53;7.80;;;4.78;;
19213;SDS011;9741;51.020;5.304;2022-08-19T06:13:28;7.70;;;5.10;;
19213;SDS011;9741;51.020;5.304;2022-08-19T06:16:00;6.85;;;4.78;;
19213;SDS011;9741;51.020;5.304;2022-08-19T06:18:30;8.48;;;4.28;;
19213;SDS011;9741;51.020;5.304;2022-08-19T06:21:00;7.43;;;4.65;;
19213;SDS011;9741;51.020;5.304;2022-08-19T06:23:37;6.15;;;4.30;;
19213;SDS011;9741;51.020;5.304;2022-08-19T06:26:17;6.63;;;5.93;;
19213;SDS011;9741;51.020;5.304;2022-08-19T06:28:54;6.68;;;3.65;;
19213;SDS011;9741;51.020;5.304;2022-08-19T06:31:25;4.97;;;3.30;;
19213;SDS011;9741;51.020;5.304;2022-08-19T06:33:54;8.65;;;5.05;;
19213;SDS011;9741;51.020;5.304;2022-08-19T06:36:23;6.60;;;4.32;;
19213;SDS011;9741;51.020;5.304;2022-08-19T06:38:59;9.27;;;5.40;;
19213;SDS011;9741;51.020;5.304;2022-08-19T06:41:33;6.88;;;4.80;;
19213;SDS011;9741;51.020;5.304;2022-08-19T06:44:07;8.00;;;5.18;;
19213;SDS011;9741;51.020;5.304;2022-08-19T06:46:40;10.05;;;5.15;;
19213;SDS011;9741;51.020;5.304;2022-08-19T06:49:09;8.07;;;3.97;;
19213;SDS011;9741;51.020;5.304;2022-08-19T06:51:41;7.13;;;4.68;;
19213;SDS011;9741;51.020;5.304;2022-08-19T06:54:17;12.15;;;4.55;;
19213;SDS011;9741;51.020;5.304;2022-08-19T06:56:49;10.90;;;5.82;;
19213;SDS011;9741;51.020;5.304;2022-08-19T06:59:21;7.40;;;5.18;;
19213;SDS011;9741;51.020;5.304;2022-08-19T07:01:55;8.18;;;5.68;;
19213;SDS011;9741;51.020;5.304;2022-08-19T07:04:25;7.13;;;5.40;;
19213;SDS011;9741;51.020;5.304;2022-08-19T07:07:05;9.35;;;4.40;;
19213;SDS011;9741;51.020;5.304;2022-08-19T07:09:41;9.15;;;4.88;;
19213;SDS011;9741;51.020;5.304;2022-08-19T07:12:13;11.05;;;3.58;;
19213;SDS011;9741;51.020;5.304;2022-08-19T07:14:45;9.07;;;5.07;;
19213;SDS011;9741;51.020;5.304;2022-08-19T07:17:18;7.80;;;4.63;;
19213;SDS011;9741;51.020;5.304;2022-08-19T07:20:00;6.72;;;4.45;;
19213;SDS011;9741;51.020;5.304;2022-08-19T07:22:37;6.55;;;4.22;;
19213;SDS011;9741;51.020;5.304;2022-08-19T07:25:08;7.05;;;4.22;;
19213;SDS011;9741;51.020;5.304;2022-08-19T07:27:39;6.28;;;4.03;;
19213;SDS011;9741;51.020;5.304;2022-08-19T07:30:15;6.78;;;4.35;;
19213;SDS011;9741;51.020;5.304;2022-08-19T07:32:48;7.40;;;4.75;;
19213;SDS011;9741;51.020;5.304;2022-08-19T07:35:25;4.63;;;3.45;;
19213;SDS011;9741;51.020;5.304;2022-08-19T07:37:54;3.33;;;2.20;;
19213;SDS011;9741;51.020;5.304;2022-08-19T07:40:24;4.68;;;3.65;;
19213;SDS011;9741;51.020;5.304;2022-08-19T07:42:54;7.22;;;3.83;;
19213;SDS011;9741;51.020;5.304;2022-08-19T07:45:27;4.70;;;3.63;;
19213;SDS011;9741;51.020;5.304;2022-08-19T07:47:57;3.90;;;2.60;;
19213;SDS011;9741;51.020;5.304;2022-08-19T07:50:27;4.32;;;3.08;;
19213;SDS011;9741;51.020;5.304;2022-08-19T07:52:58;4.65;;;2.95;;
19213;SDS011;9741;51.020;5.304;2022-08-19T07:55:30;3.33;;;2.25;;
19213;SDS011;9741;51.020;5.304;2022-08-19T07:58:00;6.32;;;2.80;;
19213;SDS011;9741;51.020;5.304;2022-08-19T08:00:34;4.18;;;3.08;;
19213;SDS011;9741;51.020;5.304;2022-08-19T08:03:02;4.07;;;2.42;;
19213;SDS011;9741;51.020;5.304;2022-08-19T08:05:31;4.22;;;2.55;;
19213;SDS011;9741;51.020;5.304;2022-08-19T08:08:16;2.55;;;2.35;;
19213;SDS011;9741;51.020;5.304;2022-08-19T08:11:02;2.33;;;1.60;;
19213;SDS011;9741;51.020;5.304;2022-08-19T08:13:38;4.40;;;1.98;;
19213;SDS011;9741;51.020;5.304;2022-08-19T08:16:10;3.45;;;1.83;;
19213;SDS011;9741;51.020;5.304;2022-08-19T08:18:43;3.28;;;2.30;;
19213;SDS011;9741;51.020;5.304;2022-08-19T08:21:14;2.35;;;2.05;;
19213;SDS011;9741;51.020;5.304;2022-08-19T08:23:44;3.70;;;2.17;;
19213;SDS011;9741;51.020;5.304;2022-08-19T08:26:14;2.47;;;2.05;;
19213;SDS011;9741;51.020;5.304;2022-08-19T08:28:43;4.13;;;2.53;;
19213;SDS011;9741;51.020;5.304;2022-08-19T08:31:19;7.15;;;2.28;;
19213;SDS011;9741;51.020;5.304;2022-08-19T08:33:52;2.90;;;2.13;;
19213;SDS011;9741;51.020;5.304;2022-08-19T08:36:22;4.45;;;2.25;;
19213;SDS011;9741;51.020;5.304;2022-08-19T08:38:53;4.22;;;2.08;;
19213;SDS011;9741;51.020;5.304;2022-08-19T08:41:34;5.68;;;3.13;;
19213;SDS011;9741;51.020;5.304;2022-08-19T08:44:11;3.67;;;2.15;;
19213;SDS011;9741;51.020;5.304;2022-08-19T08:46:49;3.67;;;2.45;;
19213;SDS011;9741;51.020;5.304;2022-08-19T08:49:31;2.22;;;1.95;;
19213;SDS011;9741;51.020;5.304;2022-08-19T08:52:11;3.25;;;2.42;;
19213;SDS011;9741;51.020;5.304;2022-08-19T08:54:47;1.67;;;1.33;;
19213;SDS011;9741;51.020;5.304;2022-08-19T08:57:25;4.88;;;2.72;;
19213;SDS011;9741;51.020;5.304;2022-08-19T08:59:57;3.38;;;2.25;;
19213;SDS011;9741;51.020;5.304;2022-08-19T09:02:35;3.97;;;2.42;;
19213;SDS011;9741;51.020;5.304;2022-08-19T09:05:03;2.72;;;1.90;;
19213;SDS011;9741;51.020;5.304;2022-08-19T09:07:39;2.40;;;1.58;;
19213;SDS011;9741;51.020;5.304;2022-08-19T09:10:18;3.58;;;2.40;;
19213;SDS011;9741;51.020;5.304;2022-08-19T09:12:57;2.80;;;1.83;;
19213;SDS011;9741;51.020;5.304;2022-08-19T09:15:42;3.38;;;2.45;;
19213;SDS011;9741;51.020;5.304;2022-08-19T09:18:20;9.65;;;2.85;;
19213;SDS011;9741;51.020;5.304;2022-08-19T09:20:48;5.00;;;2.75;;
19213;SDS011;9741;51.020;5.304;2022-08-19T09:23:20;2.92;;;2.15;;
19213;SDS011;9741;51.020;5.304;2022-08-19T09:25:55;2.58;;;2.13;;
19213;SDS011;9741;51.020;5.304;2022-08-19T09:28:25;4.25;;;1.80;;
19213;SDS011;9741;51.020;5.304;2022-08-19T09:30:53;2.35;;;1.52;;
19213;SDS011;9741;51.020;5.304;2022-08-19T09:33:26;3.15;;;2.03;;
19213;SDS011;9741;51.020;5.304;2022-08-19T09:36:04;2.67;;;1.98;;
19213;SDS011;9741;51.020;5.304;2022-08-19T09:38:37;4.20;;;1.83;;
19213;SDS011;9741;51.020;5.304;2022-08-19T09:41:07;2.47;;;1.73;;
19213;SDS011;9741;51.020;5.304;2022-08-19T09:43:45;1.88;;;1.50;;
19213;SDS011;9741;51.020;5.304;2022-08-19T09:46:17;3.42;;;1.33;;
19213;SDS011;9741;51.020;5.304;2022-08-19T09:48:51;1.70;;;1.48;;
19213;SDS011;9741;51.020;5.304;2022-08-19T09:51:25;1.63;;;1.25;;
19213;SDS011;9741;51.020;5.304;2022-08-19T09:53:59;2.40;;;1.50;;
19213;SDS011;9741;51.020;5.304;2022-08-19T09:56:32;1.20;;;1.10;;
19213;SDS011;9741;51.020;5.304;2022-08-19T09:59:08;1.45;;;1.33;;
19213;SDS011;9741;51.020;5.304;2022-08-19T10:01:38;2.20;;;1.63;;
19213;SDS011;9741;51.020;5.304;2022-08-19T10:04:17;1.63;;;1.27;;
19213;SDS011;9741;51.020;5.304;2022-08-19T10:06:48;1.42;;;1.25;;
19213;SDS011;9741;51.020;5.304;2022-08-19T10:09:24;1.25;;;1.00;;
19213;SDS011;9741;51.020;5.304;2022-08-19T10:11:54;1.88;;;1.58;;
19213;SDS011;9741;51.020;5.304;2022-08-19T10:14:30;1.80;;;1.60;;
19213;SDS011;9741;51.020;5.304;2022-08-19T10:17:01;3.83;;;1.60;;
19213;SDS011;9741;51.020;5.304;2022-08-19T10:19:31;1.25;;;1.00;;
19213;SDS011;9741;51.020;5.304;2022-08-19T10:22:04;1.70;;;1.30;;
19213;SDS011;9741;51.020;5.304;2022-08-19T10:24:33;1.60;;;1.13;;
19213;SDS011;9741;51.020;5.304;2022-08-19T10:27:11;1.80;;;1.35;;
19213;SDS011;9741;51.020;5.304;2022-08-19T10:29:45;2.28;;;1.90;;
19213;SDS011;9741;51.020;5.304;2022-08-19T10:32:17;1.70;;;1.30;;
19213;SDS011;9741;51.020;5.304;2022-08-19T10:34:50;1.48;;;1.05;;
19213;SDS011;9741;51.020;5.304;2022-08-19T10:37:20;2.05;;;1.60;;
19213;SDS011;9741;51.020;5.304;2022-08-19T10:39:48;0.70;;;0.70;;
19213;SDS011;9741;51.020;5.304;2022-08-19T10:42:20;1.40;;;1.30;;
19213;SDS011;9741;51.020;5.304;2022-08-19T10:44:49;2.30;;;0.95;;
19213;SDS011;9741;51.020;5.304;2022-08-19T10:47:17;1.30;;;1.15;;
19213;SDS011;9741;51.020;5.304;2022-08-19T10:49:50;1.00;;;0.90;;
19213;SDS011;9741;51.020;5.304;2022-08-19T10:52:37;2.20;;;1.50;;
19213;SDS011;9741;51.020;5.304;2022-08-19T10:55:07;5.88;;;1.33;;
19213;SDS011;9741;51.020;5.304;2022-08-19T10:57:52;1.25;;;0.70;;
19213;SDS011;9741;51.020;5.304;2022-08-19T11:00:21;1.90;;;0.77;;
19213;SDS011;9741;51.020;5.304;2022-08-19T11:03:00;0.68;;;0.68;;
19213;SDS011;9741;51.020;5.304;2022-08-19T11:05:33;0.93;;;0.77;;
19213;SDS011;9741;51.020;5.304;2022-08-19T11:08:06;1.45;;;0.95;;
19213;SDS011;9741;51.020;5.304;2022-08-19T11:10:42;1.25;;;1.13;;
19213;SDS011;9741;51.020;5.304;2022-08-19T11:13:10;0.55;;;0.55;;
19213;SDS011;9741;51.020;5.304;2022-08-19T11:15:40;1.00;;;0.77;;
19213;SDS011;9741;51.020;5.304;2022-08-19T11:18:12;1.83;;;1.20;;
19213;SDS011;9741;51.020;5.304;2022-08-19T11:20:43;1.42;;;1.10;;
19213;SDS011;9741;51.020;5.304;2022-08-19T11:23:15;1.30;;;0.88;;
19213;SDS011;9741;51.020;5.304;2022-08-19T11:25:53;0.88;;;0.88;;
19213;SDS011;9741;51.020;5.304;2022-08-19T11:28:26;1.60;;;0.90;;
19213;SDS011;9741;51.020;5.304;2022-08-19T11:30:55;1.13;;;1.00;;
19213;SDS011;9741;51.020;5.304;2022-08-19T11:33:32;1.13;;;1.00;;
19213;SDS011;9741;51.020;5.304;2022-08-19T11:36:03;1.52;;;1.23;;
19213;SDS011;9741;51.020;5.304;2022-08-19T11:38:35;8.30;;;1.50;;
19213;SDS011;9741;51.020;5.304;2022-08-19T11:41:06;1.15;;;0.95;;
19213;SDS011;9741;51.020;5.304;2022-08-19T11:43:43;4.68;;;1.15;;
19213;SDS011;9741;51.020;5.304;2022-08-19T11:46:14;1.15;;;0.90;;
19213;SDS011;9741;51.020;5.304;2022-08-19T11:48:44;1.63;;;0.85;;
19213;SDS011;9741;51.020;5.304;2022-08-19T11:51:19;3.35;;;0.95;;
19213;SDS011;9741;51.020;5.304;2022-08-19T11:53:50;1.38;;;1.10;;
19213;SDS011;9741;51.020;5.304;2022-08-19T11:56:32;1.38;;;1.20;;
19213;SDS011;9741;51.020;5.304;2022-08-19T11:59:09;1.05;;;0.85;;
19213;SDS011;9741;51.020;5.304;2022-08-19T12:01:52;0.80;;;0.80;;
19213;SDS011;9741;51.020;5.304;2022-08-19T12:04:23;1.10;;;0.85;;
19213;SDS011;9741;51.020;5.304;2022-08-19T12:06:55;1.00;;;0.90;;
19213;SDS011;9741;51.020;5.304;2022-08-19T12:09:25;1.25;;;0.65;;
19213;SDS011;9741;51.020;5.304;2022-08-19T12:11:56;4.22;;;0.98;;
19213;SDS011;9741;51.020;5.304;2022-08-19T12:14:27;1.27;;;1.00;;
19213;SDS011;9741;51.020;5.304;2022-08-19T12:17:00;1.33;;;1.13;;
19213;SDS011;9741;51.020;5.304;2022-08-19T12:19:33;0.88;;;0.88;;
19213;SDS011;9741;51.020;5.304;2022-08-19T12:22:08;1.15;;;0.90;;
19213;SDS011;9741;51.020;5.304;2022-08-19T12:24:41;1.23;;;0.88;;
19213;SDS011;9741;51.020;5.304;2022-08-19T12:27:09;1.73;;;0.90;;
19213;SDS011;9741;51.020;5.304;2022-08-19T12:29:40;1.20;;;0.90;;
19213;SDS011;9741;51.020;5.304;2022-08-19T12:32:10;1.42;;;1.20;;
19213;SDS011;9741;51.020;5.304;2022-08-19T12:34:47;0.98;;;0.70;;
19213;SDS011;9741;51.020;5.304;2022-08-19T12:37:21;0.90;;;0.90;;
19213;SDS011;9741;51.020;5.304;2022-08-19T12:39:54;1.00;;;0.60;;
19213;SDS011;9741;51.020;5.304;2022-08-19T12:42:31;2.63;;;0.95;;
19213;SDS011;9741;51.020;5.304;2022-08-19T12:45:01;1.13;;;1.00;;
19213;SDS011;9741;51.020;5.304;2022-08-19T12:47:32;1.63;;;0.90;;
19213;SDS011;9741;51.020;5.304;2022-08-19T12:50:02;1.75;;;1.00;;
19213;SDS011;9741;51.020;5.304;2022-08-19T12:52:37;2.83;;;1.40;;
19213;SDS011;9741;51.020;5.304;2022-08-19T12:55:06;1.27;;;1.15;;
19213;SDS011;9741;51.020;5.304;2022-08-19T12:57:36;0.93;;;0.80;;
19213;SDS011;9741;51.020;5.304;2022-08-19T13:00:10;4.93;;;0.77;;
19213;SDS011;9741;51.020;5.304;2022-08-19T13:02:43;0.98;;;0.85;;
19213;SDS011;9741;51.020;5.304;2022-08-19T13:05:27;1.33;;;1.20;;
19213;SDS011;9741;51.020;5.304;2022-08-19T13:08:02;3.78;;;1.10;;
19213;SDS011;9741;51.020;5.304;2022-08-19T13:10:31;1.63;;;1.10;;
19213;SDS011;9741;51.020;5.304;2022-08-19T13:13:05;1.67;;;0.95;;
19213;SDS011;9741;51.020;5.304;2022-08-19T13:15:34;0.57;;;0.57;;
19213;SDS011;9741;51.020;5.304;2022-08-19T13:18:06;2.88;;;1.02;;
19213;SDS011;9741;51.020;5.304;2022-08-19T13:20:36;1.55;;;0.90;;
19213;SDS011;9741;51.020;5.304;2022-08-19T13:23:12;1.45;;;0.80;;
19213;SDS011;9741;51.020;5.304;2022-08-19T13:25:39;1.00;;;0.95;;
19213;SDS011;9741;51.020;5.304;2022-08-19T13:28:08;0.95;;;0.55;;
19213;SDS011;9741;51.020;5.304;2022-08-19T13:30:38;1.83;;;0.80;;
19213;SDS011;9741;51.020;5.304;2022-08-19T13:33:24;0.45;;;0.45;;
19213;SDS011;9741;51.020;5.304;2022-08-19T13:35:56;0.90;;;0.68;;
19213;SDS011;9741;51.020;5.304;2022-08-19T13:38:38;0.60;;;0.60;;
19213;SDS011;9741;51.020;5.304;2022-08-19T13:41:11;0.75;;;0.75;;
19213;SDS011;9741;51.020;5.304;2022-08-19T13:43:48;0.82;;;0.60;;
19213;SDS011;9741;51.020;5.304;2022-08-19T13:46:20;3.78;;;1.27;;
19213;SDS011;9741;51.020;5.304;2022-08-19T13:48:49;0.75;;;0.75;;
19213;SDS011;9741;51.020;5.304;2022-08-19T13:51:19;0.52;;;0.52;;
19213;SDS011;9741;51.020;5.304;2022-08-19T13:53:53;0.95;;;0.40;;
19213;SDS011;9741;51.020;5.304;2022-08-19T13:56:26;0.95;;;0.70;;
19213;SDS011;9741;51.020;5.304;2022-08-19T13:58:55;0.70;;;0.50;;
19213;SDS011;9741;51.020;5.304;2022-08-19T14:01:30;1.83;;;0.70;;
19213;SDS011;9741;51.020;5.304;2022-08-19T14:04:06;1.05;;;0.82;;
19213;SDS011;9741;51.020;5.304;2022-08-19T14:06:37;1.02;;;0.73;;
19213;SDS011;9741;51.020;5.304;2022-08-19T14:09:10;0.57;;;0.38;;
19213;SDS011;9741;51.020;5.304;2022-08-19T14:11:37;0.70;;;0.60;;
19213;SDS011;9741;51.020;5.304;2022-08-19T14:14:19;0.75;;;0.70;;
19213;SDS011;9741;51.020;5.304;2022-08-19T14:16:46;1.63;;;0.80;;
19213;SDS011;9741;51.020;5.304;2022-08-19T14:19:15;0.50;;;0.40;;
19213;SDS011;9741;51.020;5.304;2022-08-19T14:21:45;0.55;;;0.50;;
19213;SDS011;9741;51.020;5.304;2022-08-19T14:24:18;0.82;;;0.70;;
19213;SDS011;9741;51.020;5.304;2022-08-19T14:26:45;0.60;;;0.43;;
19213;SDS011;9741;51.020;5.304;2022-08-19T14:29:14;2.22;;;0.90;;
19213;SDS011;9741;51.020;5.304;2022-08-19T14:31:44;1.33;;;0.55;;
19213;SDS011;9741;51.020;5.304;2022-08-19T14:34:19;1.33;;;0.60;;
19213;SDS011;9741;51.020;5.304;2022-08-19T14:36:57;1.02;;;0.60;;
19213;SDS011;9741;51.020;5.304;2022-08-19T14:39:30;1.08;;;0.68;;
19213;SDS011;9741;51.020;5.304;2022-08-19T14:41:59;0.73;;;0.60;;
19213;SDS011;9741;51.020;5.304;2022-08-19T14:44:37;0.73;;;0.73;;
19213;SDS011;9741;51.020;5.304;2022-08-19T14:47:13;1.70;;;0.95;;
19213;SDS011;9741;51.020;5.304;2022-08-19T14:49:41;3.65;;;1.17;;
19213;SDS011;9741;51.020;5.304;2022-08-19T14:52:11;1.48;;;0.60;;
19213;SDS011;9741;51.020;5.304;2022-08-19T14:54:51;0.85;;;0.70;;
19213;SDS011;9741;51.020;5.304;2022-08-19T14:57:21;2.17;;;1.00;;
19213;SDS011;9741;51.020;5.304;2022-08-19T14:59:52;1.15;;;1.00;;
19213;SDS011;9741;51.020;5.304;2022-08-19T15:02:22;0.70;;;0.55;;
19213;SDS011;9741;51.020;5.304;2022-08-19T15:04:59;0.40;;;0.40;;
19213;SDS011;9741;51.020;5.304;2022-08-19T15:07:37;1.40;;;0.93;;
19213;SDS011;9741;51.020;5.304;2022-08-19T15:10:16;2.38;;;0.80;;
19213;SDS011;9741;51.020;5.304;2022-08-19T15:12:51;2.55;;;0.57;;
19213;SDS011;9741;51.020;5.304;2022-08-19T15:15:29;0.98;;;0.82;;
19213;SDS011;9741;51.020;5.304;2022-08-19T15:17:58;0.73;;;0.43;;
19213;SDS011;9741;51.020;5.304;2022-08-19T15:20:36;0.70;;;0.60;;
19213;SDS011;9741;51.020;5.304;2022-08-19T15:23:05;0.40;;;0.40;;
19213;SDS011;9741;51.020;5.304;2022-08-19T15:25:40;0.50;;;0.50;;
19213;SDS011;9741;51.020;5.304;2022-08-19T15:28:11;0.65;;;0.63;;
19213;SDS011;9741;51.020;5.304;2022-08-19T15:30:43;0.65;;;0.47;;
19213;SDS011;9741;51.020;5.304;2022-08-19T15:33:15;1.10;;;1.00;;
19213;SDS011;9741;51.020;5.304;2022-08-19T15:35:46;1.70;;;1.02;;